Time;durP1;ratioP1;P1;durP2;ratioP2;P2;SDS_P1;SDS_P2;PMS_P1;PMS_P2;Temp;Humidity;BMP_temperature;BMP_pressure;BME280_temperature;BME280_humidity;BME280_pressure;Samples;Min_cycle;Max_cycle;Signal;HPM_P1;HPM_P2
2022/07/16 00:03:40;;;;;;;1.67;0.77;;;;;;;14.65;51.32;101221.66;4994629;28;20398;-29
2022/07/16 00:06:06;;;;;;;1.98;1.00;;;;;;;14.63;51.41;101219.03;4995275;28;20034;-29
2022/07/16 00:08:31;;;;;;;1.20;0.75;;;;;;;14.62;51.51;101222.59;4995295;28;20026;-29
2022/07/16 00:10:56;;;;;;;1.00;0.90;;;;;;;14.61;51.54;101211.09;4993852;28;20074;-29
2022/07/16 00:13:22;;;;;;;0.98;0.75;;;;;;;14.60;51.58;101211.13;4991383;28;20041;-29
2022/07/16 00:15:47;;;;;;;1.65;0.85;;;;;;;14.59;51.79;101212.03;4994245;28;20026;-29
2022/07/16 00:20:58;;;;;;;1.88;0.85;;;;;;;14.61;51.72;101199.63;4972860;28;20052;-29
2022/07/16 00:23:24;;;;;;;1.08;0.82;;;;;;;14.62;51.87;101201.38;4976912;28;20117;-29
2022/07/16 00:25:49;;;;;;;2.67;1.00;;;;;;;14.57;52.03;101188.16;4995136;28;20097;-29
2022/07/16 00:28:15;;;;;;;0.80;0.80;;;;;;;14.59;52.02;101180.19;4993599;28;20065;-29
2022/07/16 00:30:40;;;;;;;2.72;0.90;;;;;;;14.61;52.40;101189.00;4981341;28;20038;-29
2022/07/16 00:33:05;;;;;;;1.20;0.70;;;;;;;14.60;52.43;101192.53;4974456;28;20574;-29
2022/07/16 00:35:31;;;;;;;1.98;0.80;;;;;;;14.58;52.44;101189.91;4974783;28;20450;-29
2022/07/16 00:37:56;;;;;;;0.70;0.70;;;;;;;14.60;52.86;101187.22;4974841;28;20443;-29
2022/07/16 00:40:21;;;;;;;1.40;0.82;;;;;;;14.57;52.39;101184.66;4972981;28;20134;-29
2022/07/16 00:42:47;;;;;;;1.88;0.80;;;;;;;14.54;52.03;101179.41;4973073;28;20135;-29
2022/07/16 00:45:12;;;;;;;1.40;0.73;;;;;;;14.54;52.59;101182.06;4974800;28;20496;-29
2022/07/16 00:47:37;;;;;;;0.70;0.70;;;;;;;14.55;52.52;101182.03;4973291;28;20027;-29
2022/07/16 00:50:03;;;;;;;0.90;0.88;;;;;;;14.56;52.38;101173.16;4975284;28;20046;-29
2022/07/16 00:52:28;;;;;;;1.05;0.90;;;;;;;14.57;52.54;101172.25;4994611;28;20505;-29
2022/07/16 00:54:54;;;;;;;1.73;1.20;;;;;;;14.57;52.94;101174.03;4993303;28;20030;-29
2022/07/16 00:57:19;;;;;;;1.00;0.90;;;;;;;14.62;52.78;101172.16;4993531;28;20034;-29
2022/07/16 00:59:44;;;;;;;0.90;0.90;;;;;;;14.58;52.73;101173.97;4993072;28;20030;-29
2022/07/16 01:02:10;;;;;;;1.15;1.05;;;;;;;14.58;53.29;101167.81;4994198;28;20108;-29
2022/07/16 01:04:35;;;;;;;2.03;0.80;;;;;;;14.59;53.65;101169.56;4994322;28;20467;-29
2022/07/16 01:07:01;;;;;;;1.67;1.05;;;;;;;14.57;52.78;101166.06;5008797;28;20030;-29
2022/07/16 01:09:26;;;;;;;2.10;1.05;;;;;;;14.56;53.18;101164.28;4993363;28;20023;-28
2022/07/16 01:11:52;;;;;;;2.88;0.82;;;;;;;14.56;53.77;101161.66;4993485;28;20517;-29
2022/07/16 01:14:18;;;;;;;0.80;0.80;;;;;;;14.60;53.11;101168.66;4987652;28;20389;-29
2022/07/16 01:16:44;;;;;;;0.80;0.70;;;;;;;14.57;53.05;101161.63;4988765;28;20057;-29
2022/07/16 01:19:10;;;;;;;0.93;0.93;;;;;;;14.58;53.56;101165.16;4992264;28;20074;-29
2022/07/16 01:21:35;;;;;;;2.70;1.20;;;;;;;14.55;53.48;101162.56;4977754;28;20085;-29
2022/07/16 01:24:02;;;;;;;1.20;1.10;;;;;;;14.56;53.16;101162.53;4995192;28;20030;-29
2022/07/16 01:26:28;;;;;;;2.22;0.90;;;;;;;14.55;52.93;101162.56;4993028;28;20037;-29
2022/07/16 01:28:53;;;;;;;2.55;1.00;;;;;;;14.58;53.35;101157.19;5008810;28;20030;-29
2022/07/16 01:31:18;;;;;;;1.20;1.08;;;;;;;14.56;53.60;101148.38;4993614;28;20030;-29
2022/07/16 01:34:24;;;;;;;3.35;1.35;;;;;;;14.55;53.45;101155.47;4980754;28;20394;-29
2022/07/16 01:36:31;;;;;;;1.73;1.10;;;;;;;14.56;52.98;101146.59;4972515;28;20113;-29
2022/07/16 01:38:56;;;;;;;1.45;1.17;;;;;;;14.51;52.67;101145.81;4973845;28;20151;-29
2022/07/16 01:41:21;;;;;;;2.53;1.20;;;;;;;14.54;53.73;101143.09;4980757;28;20066;-29
2022/07/16 01:43:47;;;;;;;2.28;1.10;;;;;;;14.53;53.21;101137.81;4993139;28;20052;-29
2022/07/16 01:46:12;;;;;;;1.15;1.08;;;;;;;14.53;53.48;101132.50;4977242;28;20035;-29
2022/07/16 01:48:39;;;;;;;0.93;0.93;;;;;;;14.52;53.82;101133.41;4974915;28;20093;-29
2022/07/16 01:51:05;;;;;;;1.02;0.98;;;;;;;14.52;53.92;101136.06;4984543;28;20053;-29
2022/07/16 01:53:30;;;;;;;1.33;1.23;;;;;;;14.49;53.12;101131.69;4993349;28;20363;-29
2022/07/16 01:55:58;;;;;;;1.58;1.48;;;;;;;14.45;53.27;101124.69;4992763;28;20030;-29
2022/07/16 01:58:24;;;;;;;1.80;1.00;;;;;;;14.48;53.69;101129.94;4977816;28;20034;-29
2022/07/16 02:00:49;;;;;;;1.48;1.30;;;;;;;14.42;53.62;101136.25;4976883;28;20038;-29
2022/07/16 02:03:15;;;;;;;2.65;1.50;;;;;;;14.46;53.53;101122.00;4977150;28;20023;-29
2022/07/16 02:05:41;;;;;;;1.85;1.20;;;;;;;14.47;53.33;101123.75;4979071;28;20422;-29
2022/07/16 02:08:07;;;;;;;2.42;1.25;;;;;;;14.46;54.12;101124.66;4997322;28;20100;-29
2022/07/16 02:10:33;;;;;;;1.25;1.10;;;;;;;14.52;53.79;101125.44;4996442;28;20026;-29
2022/07/16 02:12:58;;;;;;;1.95;1.38;;;;;;;14.49;53.81;101119.31;4996807;28;20022;-29
2022/07/16 02:15:24;;;;;;;2.63;1.35;;;;;;;14.48;53.55;101109.56;4996943;28;20441;-29
2022/07/16 02:17:49;;;;;;;1.95;1.20;;;;;;;14.48;53.65;101117.53;4996854;28;20045;-29
2022/07/16 02:20:17;;;;;;;1.50;1.20;;;;;;;14.47;53.67;101118.44;4993958;28;20490;-29
2022/07/16 02:22:43;;;;;;;2.25;1.17;;;;;;;14.49;53.64;101110.47;4977898;28;20054;-29
2022/07/16 02:25:09;;;;;;;3.55;1.88;;;;;;;14.47;53.56;101117.56;4974976;28;20057;-29
2022/07/16 02:27:35;;;;;;;2.50;1.30;;;;;;;14.50;53.88;101109.56;4974985;28;20110;-29
2022/07/16 02:30:01;;;;;;;2.25;1.15;;;;;;;14.49;53.64;101111.34;4976515;28;20065;-28
2022/07/16 02:32:27;;;;;;;2.60;1.23;;;;;;;14.49;53.83;101106.03;4976404;28;20026;-32
2022/07/16 02:34:52;;;;;;;1.30;1.13;;;;;;;14.50;53.88;101107.78;4975950;28;20023;-31
2022/07/16 02:37:18;;;;;;;1.40;1.30;;;;;;;14.49;54.08;101106.03;4974639;28;20105;-31
2022/07/16 02:39:43;;;;;;;2.08;1.13;;;;;;;14.49;53.93;101102.50;4979668;28;20026;-31
2022/07/16 02:42:08;;;;;;;2.38;1.30;;;;;;;14.47;53.79;101102.53;4995611;28;20014;-32
2022/07/16 02:44:34;;;;;;;1.65;1.00;;;;;;;14.47;53.80;101096.34;4994999;28;20033;-31
2022/07/16 02:46:59;;;;;;;2.38;1.02;;;;;;;14.48;53.63;101104.25;4995467;28;20041;-32
2022/07/16 02:49:25;;;;;;;1.67;1.23;;;;;;;14.48;53.71;101103.41;4995386;28;20544;-32
2022/07/16 02:51:50;;;;;;;2.95;1.33;;;;;;;14.46;53.91;101095.47;4994986;28;20034;-31
2022/07/16 02:54:15;;;;;;;1.55;1.20;;;;;;;14.48;54.09;101098.97;4982902;28;20550;-31
2022/07/16 02:56:41;;;;;;;3.03;1.48;;;;;;;14.47;54.05;101094.56;4975683;28;20483;-31
2022/07/16 02:59:06;;;;;;;1.83;1.15;;;;;;;14.44;54.32;101091.09;4974355;28;20026;-31
2022/07/16 03:01:31;;;;;;;2.53;1.25;;;;;;;14.43;54.52;101095.53;4975659;28;20451;-31
2022/07/16 03:03:57;;;;;;;2.05;1.15;;;;;;;14.42;55.01;101085.81;4974176;28;20031;-32
2022/07/16 03:06:22;;;;;;;1.63;0.95;;;;;;;14.43;55.20;101089.34;4975391;28;20062;-32
2022/07/16 03:08:48;;;;;;;3.13;1.38;;;;;;;14.43;54.91;101090.22;4976179;28;20119;-32
2022/07/16 03:11:13;;;;;;;1.65;1.13;;;;;;;14.41;55.12;101088.50;4976228;28;20426;-32
2022/07/16 03:13:38;;;;;;;2.22;1.40;;;;;;;14.43;55.36;101084.91;4973922;28;20045;-31
2022/07/16 03:16:04;;;;;;;1.60;1.23;;;;;;;14.41;55.25;101086.75;4974162;28;20053;-32
2022/07/16 03:18:29;;;;;;;1.48;1.38;;;;;;;14.43;55.53;101090.22;4973995;28;20066;-31
2022/07/16 03:20:54;;;;;;;3.22;1.52;;;;;;;14.43;55.52;101089.34;4975400;28;20072;-31
2022/07/16 03:23:20;;;;;;;1.60;1.25;;;;;;;14.45;55.48;101088.44;4974904;28;20089;-32
2022/07/16 03:25:45;;;;;;;2.95;1.40;;;;;;;14.41;55.78;101084.09;4975525;28;20105;-32
2022/07/16 03:28:10;;;;;;;2.08;1.20;;;;;;;14.46;55.46;101087.50;4974680;28;20078;-31
2022/07/16 03:30:36;;;;;;;1.83;1.23;;;;;;;14.46;55.95;101092.81;4985798;28;20041;-31
2022/07/16 03:33:02;;;;;;;1.48;1.38;;;;;;;14.46;56.17;101084.88;4994356;28;20027;-30
2022/07/16 03:35:27;;;;;;;2.03;1.23;;;;;;;14.40;56.45;101084.97;4992992;28;20057;-31
2022/07/16 03:40:36;;;;;;;1.70;1.02;;;;;;;14.43;55.73;101099.94;4994652;28;20033;-31
2022/07/16 03:43:02;;;;;;;2.05;1.30;;;;;;;14.42;55.96;101087.59;4992723;28;20019;-31
2022/07/16 03:45:27;;;;;;;2.08;1.27;;;;;;;14.41;56.46;101089.41;4994261;28;20072;-32
2022/07/16 03:47:52;;;;;;;2.58;1.20;;;;;;;14.42;56.46;101088.47;4993128;28;20026;-31
2022/07/16 03:50:18;;;;;;;2.78;1.20;;;;;;;14.43;56.42;101086.69;4990593;28;20109;-31
2022/07/16 03:52:44;;;;;;;1.52;1.42;;;;;;;14.42;56.53;101083.16;4957013;28;20113;-32
2022/07/16 03:55:10;;;;;;;3.65;1.20;;;;;;;14.47;56.07;101085.72;4973533;28;20038;-31
2022/07/16 03:57:35;;;;;;;1.58;1.30;;;;;;;14.49;56.29;101090.13;4992597;28;20548;-31
2022/07/16 04:00:01;;;;;;;2.97;1.40;;;;;;;14.48;56.10;101091.00;4994278;28;20117;-31
2022/07/16 04:02:26;;;;;;;3.55;1.60;;;;;;;14.45;56.32;101083.13;4993960;28;20029;-31
2022/07/16 04:04:51;;;;;;;1.25;1.15;;;;;;;14.48;56.31;101082.19;4992386;28;20093;-31
2022/07/16 04:07:17;;;;;;;2.08;1.40;;;;;;;14.50;55.63;101085.66;4993817;28;20037;-32
2022/07/16 04:09:42;;;;;;;2.40;1.45;;;;;;;14.45;56.35;101087.53;4993959;28;20053;-31
2022/07/16 04:12:07;;;;;;;1.35;1.25;;;;;;;14.47;56.03;101086.59;4992342;28;20054;-31
2022/07/16 04:14:33;;;;;;;2.70;1.40;;;;;;;14.50;55.65;101086.56;4974134;28;20475;-31
2022/07/16 04:16:58;;;;;;;1.55;1.23;;;;;;;14.52;55.43;101082.97;4974083;28;20031;-31
2022/07/16 04:19:23;;;;;;;1.83;1.58;;;;;;;14.54;55.26;101089.16;4975910;28;20022;-31
2022/07/16 04:21:49;;;;;;;1.38;1.27;;;;;;;14.52;55.34;101086.53;4992825;28;20054;-32
2022/07/16 04:24:14;;;;;;;2.00;1.10;;;;;;;14.53;55.49;101088.25;4993344;28;20478;-31
2022/07/16 04:26:39;;;;;;;2.58;1.35;;;;;;;14.55;55.07;101085.59;4992357;28;20053;-31
2022/07/16 04:29:05;;;;;;;2.83;1.35;;;;;;;14.56;54.49;101079.38;4992692;28;20510;-31
2022/07/16 04:31:30;;;;;;;1.40;1.30;;;;;;;14.55;55.09;101080.28;4975413;28;20453;-32
2022/07/16 04:33:55;;;;;;;1.17;1.08;;;;;;;14.60;54.64;101078.41;4975065;28;20439;-31
2022/07/16 04:36:21;;;;;;;1.65;1.20;;;;;;;14.62;54.55;101079.25;4975544;28;20031;-31
2022/07/16 04:38:46;;;;;;;2.50;1.45;;;;;;;14.63;54.39;101086.31;4974769;28;20022;-31
2022/07/16 04:41:11;;;;;;;2.10;1.20;;;;;;;14.65;54.65;101075.66;4972601;28;20037;-32
2022/07/16 04:43:37;;;;;;;1.25;1.15;;;;;;;14.67;54.50;101077.38;4972484;28;20310;-32
2022/07/16 04:46:02;;;;;;;1.45;1.25;;;;;;;14.70;54.35;101081.75;4974006;28;20113;-30
2022/07/16 04:48:27;;;;;;;1.25;1.05;;;;;;;14.72;54.69;101078.19;4973497;28;20031;-32
2022/07/16 04:50:52;;;;;;;2.08;1.60;;;;;;;14.74;54.58;101071.03;4973557;28;20412;-31
2022/07/16 04:53:18;;;;;;;1.30;1.20;;;;;;;14.77;54.62;101067.47;4973392;28;20035;-32
2022/07/16 04:55:43;;;;;;;2.85;1.27;;;;;;;14.80;54.70;101070.06;4972402;28;20391;-32
2022/07/16 04:58:09;;;;;;;3.53;1.20;;;;;;;14.83;54.71;101066.47;4955882;28;20034;-31
2022/07/16 05:00:35;;;;;;;1.83;1.20;;;;;;;14.86;54.70;101072.63;4956281;28;20105;-31
2022/07/16 05:03:00;;;;;;;2.10;1.30;;;;;;;14.91;54.48;101069.88;4956988;28;20073;-31
2022/07/16 05:05:33;;;;;;;1.38;1.20;;;;;;;14.94;54.42;101059.16;4993020;28;20458;-31
2022/07/16 05:08:00;;;;;;;1.77;1.10;;;;;;;14.98;54.20;101063.50;4993002;28;20106;-32
2022/07/16 05:10:26;;;;;;;2.50;1.40;;;;;;;15.01;54.27;101055.47;4991693;28;20394;-31
2022/07/16 05:12:52;;;;;;;1.45;1.35;;;;;;;15.05;54.29;101058.06;4991234;28;20435;-32
2022/07/16 05:15:17;;;;;;;2.55;1.20;;;;;;;15.11;53.67;101055.28;4991273;28;20089;-31
2022/07/16 05:17:43;;;;;;;1.85;1.35;;;;;;;15.13;53.72;101064.97;4991586;28;20031;-30
2022/07/16 05:20:08;;;;;;;3.05;1.40;;;;;;;15.17;53.76;101056.94;4987839;28;20030;-32
2022/07/16 05:22:34;;;;;;;2.90;1.85;;;;;;;15.17;53.98;101056.94;4973828;28;20022;-31
2022/07/16 05:24:59;;;;;;;3.00;1.30;;;;;;;15.21;54.15;101055.94;4973174;28;20027;-31
2022/07/16 05:27:24;;;;;;;2.30;1.65;;;;;;;15.26;54.02;101048.75;4978972;28;20061;-32
2022/07/16 05:29:50;;;;;;;2.80;1.55;;;;;;;15.32;54.31;101053.03;4991096;28;20022;-31
2022/07/16 05:32:15;;;;;;;2.75;1.30;;;;;;;15.39;54.30;101054.66;5007773;28;20034;-32
2022/07/16 05:34:40;;;;;;;1.83;1.20;;;;;;;15.46;53.86;101050.94;4990801;28;20065;-32
2022/07/16 05:37:06;;;;;;;1.60;1.50;;;;;;;15.52;54.31;101049.91;4991915;28;20034;-31
2022/07/16 05:39:31;;;;;;;2.35;1.20;;;;;;;15.57;54.15;101049.81;4991625;28;20022;-32
2022/07/16 05:41:57;;;;;;;1.08;0.90;;;;;;;15.63;53.88;101047.00;4992577;28;20030;-31
2022/07/16 05:44:22;;;;;;;1.15;1.00;;;;;;;15.68;53.74;101050.44;4977986;28;20034;-32
2022/07/16 05:46:47;;;;;;;2.65;1.30;;;;;;;15.72;53.66;101046.78;4972001;28;20041;-32
2022/07/16 05:49:13;;;;;;;1.27;1.17;;;;;;;15.78;54.00;101048.41;4973011;28;20065;-32
2022/07/16 05:51:38;;;;;;;3.22;1.30;;;;;;;15.84;54.07;101050.06;4986017;28;20053;-31
2022/07/16 05:54:03;;;;;;;5.25;1.30;;;;;;;15.88;53.92;101052.56;4991266;28;20031;-31
2022/07/16 05:56:29;;;;;;;1.60;1.38;;;;;;;15.96;54.14;101056.84;4992522;28;20048;-31
2022/07/16 05:58:56;;;;;;;2.25;1.25;;;;;;;16.01;54.11;101050.50;4992401;28;20041;-32
2022/07/16 06:01:21;;;;;;;2.65;1.35;;;;;;;16.04;53.73;101046.88;4979323;28;20027;-32
2022/07/16 06:03:47;;;;;;;2.35;1.67;;;;;;;16.12;54.03;101044.03;4972314;28;20502;-31
2022/07/16 06:06:12;;;;;;;2.05;1.30;;;;;;;16.18;53.80;101048.31;4972916;28;20033;-31
2022/07/16 06:08:37;;;;;;;3.50;1.20;;;;;;;16.22;53.67;101055.31;4971278;28;20026;-31
2022/07/16 06:11:03;;;;;;;2.65;1.20;;;;;;;16.26;53.88;101052.53;4972682;28;20031;-32
2022/07/16 06:13:28;;;;;;;3.50;1.77;;;;;;;16.31;53.87;101048.88;4972643;28;20034;-32
2022/07/16 06:15:53;;;;;;;1.40;1.15;;;;;;;16.34;53.84;101054.97;4971651;28;20023;-31
2022/07/16 06:18:19;;;;;;;1.98;1.50;;;;;;;16.39;53.88;101052.19;4972522;28;20062;-32
2022/07/16 06:20:44;;;;;;;2.17;1.75;;;;;;;16.43;53.80;101051.19;4973213;28;20054;-32
2022/07/16 06:23:09;;;;;;;2.90;1.45;;;;;;;16.51;53.86;101057.16;4976451;28;20042;-31
2022/07/16 06:25:35;;;;;;;1.52;1.30;;;;;;;16.61;53.71;101062.25;4977116;28;20039;-32
2022/07/16 06:28:00;;;;;;;2.00;1.27;;;;;;;16.69;53.68;101060.25;4972844;28;20027;-32
2022/07/16 06:30:25;;;;;;;3.25;1.40;;;;;;;16.75;53.59;101060.06;4973200;28;20062;-31
2022/07/16 06:32:51;;;;;;;1.65;1.50;;;;;;;16.82;53.41;101066.09;4972424;28;20033;-29
2022/07/16 06:35:16;;;;;;;1.83;1.27;;;;;;;16.89;53.34;101067.66;4971473;28;20118;-29
2022/07/16 06:37:42;;;;;;;1.83;1.50;;;;;;;16.94;53.32;101070.16;4972485;28;20031;-29
2022/07/16 06:40:08;;;;;;;2.33;1.02;;;;;;;17.02;53.24;101065.50;4972217;28;20058;-29
2022/07/16 06:42:34;;;;;;;1.60;1.50;;;;;;;17.13;53.04;101074.97;4991967;28;20026;-29
2022/07/16 06:45:00;;;;;;;4.07;1.58;;;;;;;17.18;52.84;101073.06;4992717;28;20048;-29
2022/07/16 06:47:26;;;;;;;1.33;1.23;;;;;;;17.23;52.62;101063.13;4995594;28;20029;-29
2022/07/16 06:49:52;;;;;;;1.88;1.30;;;;;;;17.31;52.80;101068.22;4983291;28;20034;-29
2022/07/16 06:52:17;;;;;;;1.63;1.52;;;;;;;17.38;52.83;101069.78;4995285;28;20042;-29
2022/07/16 06:54:42;;;;;;;3.05;1.40;;;;;;;17.48;52.62;101072.16;4995395;28;20104;-29
2022/07/16 06:57:08;;;;;;;1.58;1.48;;;;;;;17.59;52.38;101071.78;4995728;28;20030;-29
2022/07/16 06:59:33;;;;;;;2.75;1.40;;;;;;;17.72;52.42;101066.94;4992333;28;20041;-29
2022/07/16 07:01:59;;;;;;;2.85;1.30;;;;;;;17.82;52.34;101069.28;4995540;28;20019;-29
2022/07/16 07:04:24;;;;;;;2.67;1.40;;;;;;;17.95;52.16;101068.84;4977967;28;20026;-29
2022/07/16 07:06:50;;;;;;;2.22;1.50;;;;;;;18.04;52.09;101057.00;4977973;28;20037;-29
2022/07/16 07:09:15;;;;;;;2.47;1.40;;;;;;;18.11;52.16;101065.69;4995546;28;20024;-29
2022/07/16 07:11:42;;;;;;;1.52;1.33;;;;;;;18.18;51.99;101070.75;4996040;28;20393;-29
2022/07/16 07:14:08;;;;;;;2.53;1.50;;;;;;;18.25;51.55;101066.09;4995304;28;20093;-29
2022/07/16 07:16:33;;;;;;;4.88;1.55;;;;;;;18.28;51.22;101065.94;4995347;28;20051;-28
2022/07/16 07:18:58;;;;;;;8.48;1.52;;;;;;;18.29;51.13;101074.84;4995896;28;20064;-29
2022/07/16 07:21:24;;;;;;;2.60;1.30;;;;;;;18.31;51.19;101076.53;4994558;28;20058;-29
2022/07/16 07:23:49;;;;;;;2.65;1.45;;;;;;;18.32;51.27;101067.63;4995753;28;20026;-29
2022/07/16 07:26:14;;;;;;;2.22;1.27;;;;;;;18.36;51.18;101075.50;4996210;28;20037;-29
2022/07/16 07:28:40;;;;;;;2.97;1.52;;;;;;;18.38;51.25;101076.31;4995468;28;20104;-29
2022/07/16 07:31:06;;;;;;;3.20;1.60;;;;;;;18.40;51.36;101085.13;4995481;28;20033;-29
2022/07/16 07:33:31;;;;;;;2.95;1.50;;;;;;;18.44;51.49;101081.44;4995572;28;20037;-29
2022/07/16 07:35:57;;;;;;;3.83;1.92;;;;;;;18.49;51.43;101081.25;4994576;28;20038;-29
2022/07/16 07:38:22;;;;;;;3.40;1.50;;;;;;;18.52;51.43;101083.84;4995174;28;20037;-29
2022/07/16 07:40:48;;;;;;;1.85;1.38;;;;;;;18.55;51.35;101081.06;4994845;28;20402;-29
2022/07/16 07:43:14;;;;;;;2.10;1.50;;;;;;;18.58;51.28;101080.94;4978727;28;20022;-29
2022/07/16 07:45:40;;;;;;;5.45;2.00;;;;;;;18.61;51.26;101080.84;4994667;28;20041;-29
2022/07/16 07:48:05;;;;;;;2.25;1.52;;;;;;;18.65;51.33;101086.94;4977971;28;20037;-29
2022/07/16 07:50:30;;;;;;;3.20;2.00;;;;;;;18.67;51.25;101090.44;4971791;28;20041;-29
2022/07/16 07:52:56;;;;;;;1.92;1.73;;;;;;;18.69;51.01;101096.56;4975794;28;20459;-29
2022/07/16 07:55:21;;;;;;;3.00;1.80;;;;;;;18.72;51.05;101096.47;4973254;28;20026;-28
2022/07/16 07:57:46;;;;;;;3.38;1.90;;;;;;;18.73;51.12;101103.53;4974558;28;20126;-28
2022/07/16 08:00:12;;;;;;;2.70;2.08;;;;;;;18.75;51.03;101123.09;4974681;28;20479;-29
2022/07/16 08:02:41;;;;;;;3.38;1.80;;;;;;;18.75;51.22;101123.09;4975325;28;20121;-29
2022/07/16 08:05:09;;;;;;;1.70;1.23;;;;;;;18.75;51.40;101138.22;4970615;28;20058;-28
2022/07/16 08:07:34;;;;;;;1.60;1.50;;;;;;;18.74;51.94;101137.34;4993976;28;20033;-28
2022/07/16 08:09:59;;;;;;;1.98;1.75;;;;;;;18.72;52.44;101136.53;4993975;28;20109;-29
2022/07/16 08:12:25;;;;;;;3.65;1.70;;;;;;;18.72;52.64;101144.56;4992405;28;20030;-28
2022/07/16 08:14:51;;;;;;;2.90;1.88;;;;;;;18.71;52.88;101145.50;4992927;28;20026;-28
2022/07/16 08:17:16;;;;;;;2.78;2.22;;;;;;;18.69;53.48;101136.66;4993654;28;20117;-29
2022/07/16 08:19:41;;;;;;;3.17;1.98;;;;;;;18.71;53.30;101148.16;4991322;28;20483;-29
2022/07/16 08:22:07;;;;;;;2.72;2.00;;;;;;;18.74;53.76;101142.69;4994286;28;20241;-29
2022/07/16 08:27:16;;;;;;;3.08;2.08;;;;;;;18.74;54.08;101148.03;4994124;28;20505;-28
2022/07/16 08:29:42;;;;;;;1.70;1.60;;;;;;;18.75;54.13;101144.47;4976180;28;20030;-28
2022/07/16 08:32:07;;;;;;;3.10;2.17;;;;;;;18.74;53.88;101153.38;4992403;28;20030;-29
2022/07/16 08:34:33;;;;;;;3.47;2.10;;;;;;;18.76;54.11;101166.69;4992790;28;20030;-28
2022/07/16 08:36:59;;;;;;;2.35;1.52;;;;;;;18.76;54.14;101161.34;4994004;28;20022;-29
2022/07/16 08:39:24;;;;;;;4.72;1.95;;;;;;;18.74;54.30;101161.38;4993295;28;20023;-28
2022/07/16 08:41:51;;;;;;;2.10;1.90;;;;;;;18.73;54.50;101162.31;5008583;28;20034;-28
2022/07/16 08:44:16;;;;;;;1.63;1.52;;;;;;;18.73;54.82;101170.34;4991857;28;20482;-28
2022/07/16 08:46:42;;;;;;;3.05;2.00;;;;;;;18.74;54.69;101173.91;4992745;28;20030;-28
2022/07/16 08:49:07;;;;;;;4.10;2.15;;;;;;;18.77;54.60;101157.75;4993221;28;20034;-28
2022/07/16 08:51:37;;;;;;;2.63;1.95;;;;;;;18.79;54.79;101171.91;4978659;28;20391;-28
2022/07/16 08:54:15;;;;;;;2.03;1.90;;;;;;;18.81;54.87;101170.94;4973890;28;20026;-28
2022/07/16 08:56:43;;;;;;;3.13;1.83;;;;;;;18.83;54.91;101177.09;4973765;28;20042;-29
2022/07/16 08:59:09;;;;;;;2.30;1.98;;;;;;;18.88;55.01;101192.09;4974237;28;20030;-28
2022/07/16 09:01:34;;;;;;;4.10;1.83;;;;;;;18.92;55.03;101185.72;4972835;28;20026;-28
2022/07/16 09:04:01;;;;;;;2.33;1.67;;;;;;;18.94;54.99;101183.88;4973446;28;20383;-28
2022/07/16 09:06:27;;;;;;;1.83;1.73;;;;;;;18.98;55.05;101178.34;4974042;28;20054;-28
2022/07/16 09:08:53;;;;;;;1.30;1.20;;;;;;;19.05;55.02;101186.16;4977415;28;20036;-29
2022/07/16 09:11:20;;;;;;;2.45;1.40;;;;;;;19.05;55.01;101184.34;4990408;28;20068;-28
2022/07/16 09:14:04;;;;;;;2.70;1.45;;;;;;;19.14;55.07;101182.31;4992624;28;20022;-28
2022/07/16 09:16:34;;;;;;;2.50;1.25;;;;;;;19.21;54.55;101191.84;4991385;28;20041;-28
2022/07/16 09:19:17;;;;;;;5.00;1.40;;;;;;;19.28;54.19;101193.34;4989785;28;20026;-29
2022/07/16 09:22:03;;;;;;;4.53;1.63;;;;;;;19.34;54.33;101193.09;4992586;28;20393;-28
2022/07/16 09:24:32;;;;;;;2.63;1.30;;;;;;;19.41;54.35;101191.06;4974763;28;20022;-28
2022/07/16 09:27:08;;;;;;;1.55;0.90;;;;;;;19.46;54.21;101201.59;4991477;28;20072;-28
2022/07/16 09:29:35;;;;;;;2.28;1.30;;;;;;;19.51;54.30;101202.31;4992547;28;20026;-28
2022/07/16 09:32:01;;;;;;;1.65;1.20;;;;;;;19.59;54.31;101200.19;4992492;28;20029;-29
2022/07/16 09:34:26;;;;;;;2.88;1.20;;;;;;;19.71;54.09;101208.69;4992204;28;20390;-28
2022/07/16 09:37:02;;;;;;;2.58;1.30;;;;;;;19.77;53.79;101202.22;4992553;28;20062;-28
2022/07/16 09:39:29;;;;;;;2.90;1.45;;;;;;;19.85;53.52;101203.63;4992584;28;20033;-28
2022/07/16 09:41:54;;;;;;;2.10;1.40;;;;;;;19.96;52.86;101200.53;4992778;28;20394;-28
2022/07/16 09:44:25;;;;;;;1.00;1.00;;;;;;;20.10;51.85;101194.66;4990946;28;20398;-28
2022/07/16 09:47:07;;;;;;;;;;;;;;;20.24;51.37;101194.06;4991390;28;20033;-28
2022/07/16 09:49:36;;;;;;;1.30;1.20;;;;;;;20.38;50.64;101193.50;4992677;28;19952;-28
2022/07/16 09:52:02;;;;;;;0.95;0.95;;;;;;;20.47;50.45;101196.75;4990969;28;20390;-29
2022/07/16 09:54:29;;;;;;;2.28;1.20;;;;;;;20.49;50.07;101202.88;4991107;28;20505;-29
2022/07/16 09:57:25;;;;;;;1.83;1.20;;;;;;;20.65;49.53;101197.75;4992358;28;20493;-29
2022/07/16 09:59:52;;;;;;;4.30;1.25;;;;;;;20.73;49.69;101195.59;4968136;28;20043;-32
2022/07/16 10:02:17;;;;;;;2.55;1.30;;;;;;;20.84;49.26;101195.13;4979627;28;20027;-32
2022/07/16 10:04:42;;;;;;;2.67;1.30;;;;;;;20.92;48.92;101199.31;4991850;28;20034;-32
2022/07/16 10:07:08;;;;;;;2.78;1.30;;;;;;;21.00;48.25;101205.19;4991957;28;20030;-32
2022/07/16 10:09:34;;;;;;;2.08;1.40;;;;;;;21.04;47.86;101198.75;4992170;28;20022;-32
2022/07/16 10:12:05;;;;;;;1.30;1.20;;;;;;;21.07;47.40;101193.25;5007231;28;20031;-32
2022/07/16 10:14:35;;;;;;;2.40;1.55;;;;;;;21.23;47.72;101200.59;4990557;28;20022;-31
2022/07/16 10:17:11;;;;;;;4.88;2.03;;;;;;;21.37;47.42;101203.53;4980739;28;20034;-32
2022/07/16 10:19:36;;;;;;;1.52;1.42;;;;;;;21.46;46.89;101195.97;4988802;28;20040;-32
2022/07/16 10:22:32;;;;;;;1.48;1.38;;;;;;;21.64;46.30;101200.47;4994283;28;20018;-32
2022/07/16 10:24:58;;;;;;;5.07;1.55;;;;;;;21.71;45.29;101200.19;4990285;28;20042;-32
2022/07/16 10:27:34;;;;;;;3.55;1.50;;;;;;;21.77;45.52;101195.44;5003704;28;20359;-32
2022/07/16 10:30:15;;;;;;;2.95;1.52;;;;;;;21.88;45.14;101196.72;4994898;28;20025;-31
2022/07/16 10:33:19;;;;;;;3.65;1.60;;;;;;;21.94;45.24;101183.00;4975888;28;20349;-32
2022/07/16 10:35:49;;;;;;;6.25;1.63;;;;;;;22.05;45.24;101187.84;4975937;28;20069;-32
2022/07/16 10:38:21;;;;;;;1.73;1.23;;;;;;;22.22;45.32;101183.44;4976115;28;20057;-32
2022/07/16 10:41:03;;;;;;;2.25;1.50;;;;;;;22.29;44.59;101193.81;4982538;28;20183;-32
2022/07/16 10:43:29;;;;;;;4.05;1.48;;;;;;;22.41;44.07;101192.31;4995615;28;20030;-32
2022/07/16 10:45:59;;;;;;;3.67;1.40;;;;;;;22.46;42.96;101192.06;4994657;28;20049;-32
2022/07/16 10:48:26;;;;;;;3.80;1.52;;;;;;;22.57;43.21;101179.94;4995306;28;20034;-32
2022/07/16 10:51:16;;;;;;;4.88;1.42;;;;;;;22.57;43.39;101180.78;4987962;28;20142;-32
2022/07/16 10:54:06;;;;;;;4.72;1.50;;;;;;;22.74;42.81;101189.81;4976412;28;20051;-31
2022/07/16 10:56:47;;;;;;;1.33;1.17;;;;;;;22.96;42.47;101177.91;4976282;28;20039;-32
2022/07/16 10:59:19;;;;;;;1.30;1.20;;;;;;;23.03;42.04;101182.00;4974388;28;20027;-32
2022/07/16 11:01:46;;;;;;;1.50;1.20;;;;;;;23.03;41.58;101182.88;4974875;28;20490;-32
2022/07/16 11:04:12;;;;;;;1.33;1.20;;;;;;;22.99;41.61;101193.88;4975861;28;20031;-31
2022/07/16 11:06:39;;;;;;;3.53;1.10;;;;;;;23.09;41.69;101183.47;4975627;28;20450;-32
2022/07/16 11:09:06;;;;;;;2.50;1.23;;;;;;;23.10;41.65;101174.47;4978766;28;20057;-32
2022/07/16 11:11:37;;;;;;;1.42;1.33;;;;;;;23.15;41.63;101189.44;4994013;28;20466;-32
2022/07/16 11:14:03;;;;;;;3.50;1.35;;;;;;;23.13;41.38;101180.56;4994425;28;20478;-32
2022/07/16 11:16:29;;;;;;;1.98;1.33;;;;;;;23.28;41.54;101186.91;4995002;28;20022;-32
2022/07/16 11:18:55;;;;;;;3.88;1.80;;;;;;;23.36;41.01;101186.53;4994457;28;20438;-31
2022/07/16 11:21:20;;;;;;;1.77;1.25;;;;;;;23.31;40.05;101183.19;4976092;28;20026;-32
2022/07/16 11:23:53;;;;;;;3.35;1.45;;;;;;;23.41;39.88;101179.06;4975262;28;20019;-32
2022/07/16 11:26:22;;;;;;;2.30;1.15;;;;;;;23.53;39.97;101177.50;4974142;28;20039;-31
2022/07/16 11:29:01;;;;;;;5.28;1.40;;;;;;;23.62;40.10;101170.75;4975087;28;20509;-31
2022/07/16 11:31:27;;;;;;;1.83;1.02;;;;;;;23.74;40.49;101184.47;4990539;28;20033;-32
2022/07/16 11:33:56;;;;;;;1.63;1.20;;;;;;;23.80;39.65;101178.72;4991739;28;20029;-31